Time;durP1;ratioP1;P1;durP2;ratioP2;P2;SDS_P1;SDS_P2;PMS_P1;PMS_P2;Temp;Humidity;BMP_temperature;BMP_pressure;BME280_temperature;BME280_humidity;BME280_pressure;Samples;Min_cycle;Max_cycle;Signal;HPM_P1;HPM_P2
2021/08/29 00:01:11;;;;;;;2.40;2.20;;;;;;;13.82;100.00;100718.59;5011365;28;20264;-75
2021/08/29 00:03:36;;;;;;;2.23;2.03;;;;;;;13.82;100.00;100715.03;5011315;28;20541;-75
2021/08/29 00:06:01;;;;;;;2.40;2.20;;;;;;;13.90;100.00;100719.72;5011517;28;20189;-75
2021/08/29 00:08:27;;;;;;;1.70;1.60;;;;;;;13.84;100.00;100716.31;5010030;28;20220;-75
2021/08/29 00:10:52;;;;;;;2.03;1.93;;;;;;;13.90;100.00;100715.03;5011258;28;20181;-75
2021/08/29 00:13:17;;;;;;;1.77;1.67;;;;;;;13.85;100.00;100711.63;5009928;28;20210;-75
2021/08/29 00:15:43;;;;;;;2.53;2.20;;;;;;;13.91;100.00;100702.91;5011101;28;20641;-75
2021/08/29 00:18:08;;;;;;;2.07;1.93;;;;;;;13.83;100.00;100700.16;5011161;28;20643;-75
2021/08/29 00:20:34;;;;;;;2.10;2.00;;;;;;;13.82;100.00;100710.34;5011239;28;20176;-75
2021/08/29 00:22:59;;;;;;;3.50;2.53;;;;;;;13.85;100.00;100703.38;5011141;28;20644;-75
2021/08/29 00:25:25;;;;;;;2.77;2.57;;;;;;;13.91;100.00;100696.59;5011024;28;20173;-75
2021/08/29 00:27:50;;;;;;;3.17;2.33;;;;;;;13.87;100.00;100695.63;5010829;28;20291;-75
2021/08/29 00:30:15;;;;;;;2.83;2.30;;;;;;;13.93;100.00;100699.84;5011026;28;20188;-75
2021/08/29 00:32:41;;;;;;;2.60;2.40;;;;;;;13.97;100.00;100693.34;5009899;28;20187;-74
2021/08/29 00:35:07;;;;;;;2.57;2.37;;;;;;;13.93;100.00;100706.13;5010765;28;20180;-75
2021/08/29 00:37:32;;;;;;;2.73;2.53;;;;;;;13.83;100.00;100694.69;5010915;28;20181;-74
2021/08/29 00:39:59;;;;;;;3.57;3.00;;;;;;;13.89;100.00;100687.91;5010970;28;20184;-75
2021/08/29 00:42:24;;;;;;;2.77;2.57;;;;;;;13.82;100.00;100688.38;5010870;28;20172;-75
2021/08/29 00:44:50;;;;;;;2.80;2.60;;;;;;;13.75;100.00;100699.06;5010868;28;20181;-75
2021/08/29 00:47:15;;;;;;;2.70;2.50;;;;;;;13.82;100.00;100706.78;5010807;28;20250;-74
2021/08/29 00:49:41;;;;;;;2.60;2.40;;;;;;;13.74;100.00;100693.88;5010174;28;20184;-75
2021/08/29 00:52:07;;;;;;;2.63;2.43;;;;;;;13.61;100.00;100698.44;5010799;28;20184;-75
2021/08/29 00:54:34;;;;;;;3.00;2.70;;;;;;;13.62;100.00;100695.38;5010777;28;20176;-75
2021/08/29 00:57:10;;;;;;;3.40;3.07;;;;;;;13.72;100.00;100696.16;5010776;28;20234;-75
2021/08/29 00:59:38;;;;;;;2.90;2.70;;;;;;;13.66;100.00;100695.53;5011178;28;20191;-75
2021/08/29 01:02:11;;;;;;;3.30;3.00;;;;;;;13.73;100.00;100697.75;5014588;28;20498;-75
2021/08/29 01:04:50;;;;;;;2.90;2.63;;;;;;;13.74;100.00;100691.94;5014483;28;20232;-75
2021/08/29 01:07:22;;;;;;;2.63;2.43;;;;;;;13.62;100.00;100692.63;5014634;28;20196;-74
2021/08/29 01:09:52;;;;;;;2.57;2.37;;;;;;;13.77;100.00;100688.56;5014604;28;20169;-75
2021/08/29 01:12:21;;;;;;;2.87;2.67;;;;;;;13.85;100.00;100692.41;5014457;28;20172;-75
2021/08/29 01:14:49;;;;;;;2.50;2.30;;;;;;;13.74;100.00;100686.44;5014602;28;20620;-75
2021/08/29 01:17:18;;;;;;;2.77;2.57;;;;;;;13.70;100.00;100688.25;5014419;28;20263;-75
2021/08/29 01:20:20;;;;;;;3.00;2.80;;;;;;;13.78;100.00;100683.88;5014399;28;20173;-75
2021/08/29 01:22:48;;;;;;;3.13;2.83;;;;;;;13.81;100.00;100683.22;5013765;28;20269;-75
2021/08/29 01:25:21;;;;;;;2.57;2.37;;;;;;;13.79;100.00;100675.31;5014195;28;20185;-74
2021/08/29 01:27:51;;;;;;;3.33;3.00;;;;;;;13.80;100.00;100682.41;5014052;28;20727;-75
2021/08/29 01:30:17;;;;;;;3.03;2.73;;;;;;;13.76;100.00;100684.22;5014245;28;20609;-75
2021/08/29 01:32:43;;;;;;;3.27;2.97;;;;;;;13.67;100.00;100669.69;5014171;28;20204;-74
2021/08/29 01:35:10;;;;;;;3.53;3.23;;;;;;;13.73;100.00;100684.03;5014016;28;20223;-74
2021/08/29 01:37:36;;;;;;;3.00;2.80;;;;;;;13.73;100.00;100676.59;5013978;28;20226;-74
2021/08/29 01:40:03;;;;;;;4.23;3.93;;;;;;;13.76;100.00;100678.72;5013498;28;20195;-75
2021/08/29 01:42:29;;;;;;;3.73;3.43;;;;;;;13.80;100.00;100684.34;5013720;28;20211;-75
2021/08/29 01:44:55;;;;;;;4.00;3.70;;;;;;;13.66;100.00;100668.88;5013236;28;20204;-75
2021/08/29 01:47:21;;;;;;;3.93;3.63;;;;;;;13.64;100.00;100675.84;5013372;28;20196;-75
2021/08/29 01:49:47;;;;;;;4.43;3.90;;;;;;;13.64;100.00;100673.88;5013490;28;20180;-75
2021/08/29 01:52:16;;;;;;;3.80;3.43;;;;;;;13.74;100.00;100672.72;5013169;28;20172;-74
2021/08/29 01:54:41;;;;;;;3.53;3.10;;;;;;;13.79;100.00;100677.25;5013076;28;20199;-75
2021/08/29 01:57:14;;;;;;;4.50;4.03;;;;;;;13.83;100.00;100670.75;5013486;28;20498;-75
2021/08/29 01:59:43;;;;;;;7.03;3.60;;;;;;;13.85;100.00;100665.75;5013106;28;20537;-73
2021/08/29 02:02:12;;;;;;;4.20;3.90;;;;;;;13.69;100.00;100662.72;5013188;28;20183;-74
2021/08/29 02:04:39;;;;;;;4.10;3.80;;;;;;;13.78;100.00;100670.16;5013122;28;20172;-74
2021/08/29 02:07:25;;;;;;;3.93;3.63;;;;;;;13.74;100.00;100669.97;5013259;28;20196;-74
2021/08/29 02:09:56;;;;;;;4.33;4.00;;;;;;;13.76;100.00;100661.44;5012988;28;20168;-74
2021/08/29 02:12:22;;;;;;;6.27;4.13;;;;;;;13.71;100.00;100659.66;5011958;28;20172;-74
2021/08/29 02:14:52;;;;;;;4.53;4.13;;;;;;;13.67;100.00;100665.00;5012740;28;20391;-75
2021/08/29 02:17:20;;;;;;;4.47;4.07;;;;;;;13.60;100.00;100666.63;5013191;28;20196;-75
2021/08/29 02:19:47;;;;;;;4.47;4.07;;;;;;;13.54;100.00;100663.25;5012760;28;20176;-74
2021/08/29 02:22:12;;;;;;;7.63;4.60;;;;;;;13.55;100.00;100667.59;5012727;28;20514;-74
2021/08/29 02:24:38;;;;;;;4.63;4.23;;;;;;;13.65;100.00;100659.03;5012477;28;20183;-75
2021/08/29 02:27:04;;;;;;;5.27;4.53;;;;;;;13.64;100.00;100656.59;5012296;28;20192;-75
2021/08/29 02:29:30;;;;;;;8.50;4.10;;;;;;;13.81;100.00;100655.75;5012626;28;20172;-74
2021/08/29 02:31:55;;;;;;;4.13;3.83;;;;;;;13.81;100.00;100658.50;5012434;28;20175;-74
2021/08/29 02:34:21;;;;;;;4.67;4.27;;;;;;;13.78;100.00;100656.41;5012258;28;20169;-75
2021/08/29 02:36:48;;;;;;;4.37;3.97;;;;;;;13.79;100.00;100649.78;5012479;28;20206;-74
2021/08/29 02:39:15;;;;;;;4.30;3.90;;;;;;;13.72;100.00;100646.72;5012511;28;20177;-74
2021/08/29 02:41:41;;;;;;;5.90;4.30;;;;;;;13.77;100.00;100657.56;5012233;28;20180;-75
2021/08/29 02:44:07;;;;;;;4.30;4.00;;;;;;;13.76;100.00;100648.50;5012174;28;20755;-75
2021/08/29 02:46:33;;;;;;;4.37;4.07;;;;;;;13.77;100.00;100647.38;5010951;28;20188;-75
2021/08/29 02:48:59;;;;;;;3.97;3.67;;;;;;;13.80;100.00;100654.16;5012282;28;20714;-74
2021/08/29 02:51:24;;;;;;;4.40;4.03;;;;;;;13.79;100.00;100645.09;5012083;28;20176;-74
2021/08/29 02:53:50;;;;;;;5.00;4.30;;;;;;;13.83;100.00;100639.75;5011922;28;20173;-75
2021/08/29 02:56:19;;;;;;;4.53;4.13;;;;;;;13.82;100.00;100647.19;5012008;28;20176;-74
2021/08/29 02:58:45;;;;;;;4.87;4.47;;;;;;;13.82;100.00;100643.63;5012050;28;20183;-74
2021/08/29 03:01:11;;;;;;;4.80;4.37;;;;;;;13.80;100.00;100635.72;5011945;28;20219;-75
2021/08/29 03:03:36;;;;;;;5.03;4.63;;;;;;;13.80;100.00;100640.41;5010441;28;20177;-74
2021/08/29 03:06:02;;;;;;;5.40;4.90;;;;;;;13.81;100.00;100642.81;5011976;28;20223;-75
2021/08/29 03:08:28;;;;;;;4.97;4.47;;;;;;;13.77;100.00;100641.88;5012197;28;20200;-75
2021/08/29 03:10:53;;;;;;;4.57;4.17;;;;;;;13.67;100.00;100640.28;5011724;28;20188;-75
2021/08/29 03:13:19;;;;;;;5.13;4.57;;;;;;;13.74;100.00;100641.69;5011676;28;20267;-74
2021/08/29 03:15:45;;;;;;;4.57;4.10;;;;;;;13.77;100.00;100635.59;5011548;28;20180;-74
2021/08/29 03:18:10;;;;;;;5.83;5.00;;;;;;;13.82;100.00;100635.41;5011722;28;20230;-74
2021/08/29 03:20:36;;;;;;;5.90;5.40;;;;;;;13.78;100.00;100635.25;5011787;28;20175;-74
2021/08/29 03:23:02;;;;;;;7.57;5.70;;;;;;;13.85;100.00;100631.97;5011847;28;20172;-75
2021/08/29 03:25:28;;;;;;;6.30;4.73;;;;;;;13.85;100.00;100626.50;5011252;28;20177;-75
2021/08/29 03:27:54;;;;;;;5.60;5.10;;;;;;;13.90;100.00;100621.66;5011325;28;20200;-75
2021/08/29 03:30:19;;;;;;;5.83;5.33;;;;;;;13.77;100.00;100624.59;5011849;28;20187;-74
2021/08/29 03:32:45;;;;;;;5.73;5.23;;;;;;;13.76;100.00;100620.25;5011378;28;20535;-74
2021/08/29 03:35:13;;;;;;;5.17;4.77;;;;;;;13.83;100.00;100615.03;5011161;28;20177;-75
2021/08/29 03:37:40;;;;;;;5.53;4.87;;;;;;;13.86;100.00;100622.59;5011709;28;20171;-74
2021/08/29 03:40:06;;;;;;;5.90;5.30;;;;;;;13.84;100.00;100617.44;5011351;28;20172;-74
2021/08/29 03:42:33;;;;;;;5.40;4.90;;;;;;;13.84;100.00;100617.44;5009976;28;20177;-75
2021/08/29 03:45:00;;;;;;;6.60;5.87;;;;;;;13.83;100.00;100620.53;5011079;28;20189;-74
2021/08/29 03:47:26;;;;;;;6.10;5.20;;;;;;;13.83;100.00;100618.59;5011125;28;20282;-74
2021/08/29 03:49:52;;;;;;;5.63;5.13;;;;;;;13.87;100.00;100614.03;5011063;28;20208;-74
2021/08/29 03:52:21;;;;;;;6.23;5.60;;;;;;;13.88;100.00;100610.16;5009748;28;20187;-74
2021/08/29 03:54:47;;;;;;;8.47;6.13;;;;;;;13.88;100.00;100612.09;5010833;28;20177;-74
2021/08/29 03:57:14;;;;;;;10.47;5.53;;;;;;;13.85;100.00;100610.00;5011035;28;20173;-74
2021/08/29 03:59:39;;;;;;;5.73;5.23;;;;;;;13.83;100.00;100604.84;5011001;28;20177;-75
2021/08/29 04:02:05;;;;;;;5.63;5.23;;;;;;;13.83;100.00;100606.78;5010931;28;20176;-75
2021/08/29 04:04:32;;;;;;;6.73;6.13;;;;;;;13.77;100.00;100608.13;5010651;28;20168;-74
2021/08/29 04:07:04;;;;;;;8.43;5.40;;;;;;;13.75;100.00;100605.72;5010888;28;20256;-75
2021/08/29 04:09:31;;;;;;;6.47;5.27;;;;;;;13.76;100.00;100606.50;5011082;28;20429;-74
2021/08/29 04:11:57;;;;;;;6.10;5.60;;;;;;;13.72;100.00;100613.78;5009506;28;20176;-74
2021/08/29 04:14:24;;;;;;;7.03;5.70;;;;;;;13.70;100.00;100614.91;5010560;28;20172;-74
2021/08/29 04:16:51;;;;;;;5.43;4.93;;;;;;;13.66;100.00;100627.69;5010705;28;20259;-74
2021/08/29 04:19:17;;;;;;;6.20;5.07;;;;;;;13.67;100.00;100617.50;5010663;28;20184;-74
2021/08/29 04:21:42;;;;;;;5.23;4.83;;;;;;;13.62;100.00;100606.72;5010657;28;20173;-75
2021/08/29 04:24:08;;;;;;;5.03;4.53;;;;;;;13.64;100.00;100610.75;5010687;28;20173;-74
2021/08/29 04:26:34;;;;;;;5.60;5.17;;;;;;;13.67;100.00;100610.09;5009328;28;20188;-74
2021/08/29 04:29:00;;;;;;;4.93;4.53;;;;;;;13.65;100.00;100611.53;5010281;28;20203;-74
2021/08/29 04:31:29;;;;;;;4.63;4.23;;;;;;;13.67;100.00;100604.59;5010381;28;20212;-75
2021/08/29 04:33:55;;;;;;;5.13;4.60;;;;;;;13.68;100.00;100610.88;5010664;28;20172;-75
2021/08/29 04:36:20;;;;;;;3.93;3.63;;;;;;;13.69;100.00;100613.28;5014595;28;20177;-74
2021/08/29 04:38:46;;;;;;;3.80;3.50;;;;;;;13.63;100.00;100611.88;5015367;28;20180;-74
2021/08/29 04:41:11;;;;;;;2.90;2.70;;;;;;;13.59;100.00;100605.41;5009460;28;20276;-74
2021/08/29 04:43:37;;;;;;;3.00;2.80;;;;;;;13.65;100.00;100615.09;5016271;28;20184;-75
2021/08/29 04:46:04;;;;;;;3.07;2.87;;;;;;;13.53;100.00;100614.97;5016857;28;20502;-74
2021/08/29 04:48:30;;;;;;;2.97;2.67;;;;;;;13.63;100.00;100605.59;5016669;28;20208;-75
2021/08/29 04:50:55;;;;;;;2.70;2.50;;;;;;;13.61;100.00;100600.41;5017010;28;20536;-75
2021/08/29 04:53:21;;;;;;;2.17;2.07;;;;;;;13.45;100.00;100613.03;5016860;28;20180;-74
2021/08/29 04:55:46;;;;;;;2.37;2.17;;;;;;;13.55;100.00;100603.66;5016683;28;20302;-75
2021/08/29 04:58:11;;;;;;;2.47;2.27;;;;;;;13.63;100.00;100602.84;5016623;28;20246;-74
2021/08/29 05:00:37;;;;;;;2.83;1.97;;;;;;;13.60;100.00;100607.06;5016791;28;20204;-74
2021/08/29 05:03:03;;;;;;;4.37;2.13;;;;;;;13.46;100.00;100611.13;5016896;28;20527;-75
2021/08/29 05:05:28;;;;;;;1.80;1.70;;;;;;;13.53;100.00;100608.66;5016891;28;20172;-74
2021/08/29 05:07:53;;;;;;;1.63;1.53;;;;;;;13.34;100.00;100609.03;5016814;28;20636;-74
2021/08/29 05:10:19;;;;;;;1.43;1.33;;;;;;;13.47;100.00;100612.72;5016823;28;20539;-74
2021/08/29 05:12:44;;;;;;;2.10;1.90;;;;;;;13.54;100.00;100613.03;5015365;28;20206;-74
2021/08/29 05:15:10;;;;;;;1.70;1.43;;;;;;;13.50;100.00;100621.13;5016700;28;20215;-74
2021/08/29 05:17:35;;;;;;;1.63;1.53;;;;;;;13.58;100.00;100617.53;5016677;28;20275;-75
2021/08/29 05:20:00;;;;;;;1.70;1.60;;;;;;;13.63;100.00;100616.56;5016749;28;20613;-74
2021/08/29 05:22:26;;;;;;;2.00;1.90;;;;;;;13.62;100.00;100618.50;5016738;28;20627;-75
2021/08/29 05:24:51;;;;;;;2.23;2.10;;;;;;;13.67;100.00;100610.09;5016436;28;20444;-75
2021/08/29 05:27:17;;;;;;;2.90;1.97;;;;;;;13.65;100.00;100617.03;5016546;28;20211;-74
2021/08/29 05:29:42;;;;;;;2.23;2.10;;;;;;;13.67;100.00;100612.03;5013303;28;20195;-74
2021/08/29 05:32:07;;;;;;;1.80;1.70;;;;;;;13.67;100.00;100614.75;5015629;28;20176;-73
2021/08/29 05:34:33;;;;;;;2.07;1.87;;;;;;;13.72;100.00;100617.31;5016179;28;20181;-73
2021/08/29 05:36:59;;;;;;;2.03;1.87;;;;;;;13.75;100.00;100616.69;5016489;28;20596;-73
2021/08/29 05:39:25;;;;;;;2.40;2.20;;;;;;;13.68;100.00;100616.38;5016546;28;20177;-73
2021/08/29 05:41:50;;;;;;;1.97;1.80;;;;;;;13.67;100.00;100621.06;5016146;28;20172;-73
2021/08/29 05:44:16;;;;;;;1.93;1.73;;;;;;;13.73;100.00;100620.88;5014042;28;20536;-73
2021/08/29 05:46:41;;;;;;;1.50;1.40;;;;;;;13.76;100.00;100620.25;5008575;28;20192;-73
2021/08/29 05:49:07;;;;;;;1.63;1.53;;;;;;;13.77;100.00;100622.66;5009970;28;20275;-74
2021/08/29 05:51:32;;;;;;;1.60;1.50;;;;;;;13.80;100.00;100615.69;5013011;28;20192;-74
2021/08/29 05:53:57;;;;;;;1.83;1.73;;;;;;;13.73;100.00;100615.38;5012918;28;20184;-73
2021/08/29 05:56:23;;;;;;;1.93;1.83;;;;;;;13.73;100.00;100616.19;5011818;28;20633;-74
2021/08/29 05:58:48;;;;;;;2.33;1.53;;;;;;;13.74;100.00;100609.56;5010658;28;20258;-74
2021/08/29 06:01:18;;;;;;;1.60;1.50;;;;;;;13.57;100.00;100617.84;5011741;28;20184;-74
2021/08/29 06:03:43;;;;;;;1.43;1.33;;;;;;;13.66;100.00;100613.16;5013033;28;20262;-74
2021/08/29 06:06:09;;;;;;;1.70;1.60;;;;;;;13.64;100.00;100616.22;5013261;28;20268;-74
2021/08/29 06:08:34;;;;;;;1.60;1.50;;;;;;;13.64;100.00;100615.44;5013121;28;20656;-74
2021/08/29 06:11:00;;;;;;;1.50;1.40;;;;;;;13.53;100.00;100612.22;5013017;28;20548;-74
2021/08/29 06:13:25;;;;;;;1.80;1.70;;;;;;;13.53;100.00;100620.44;5012373;28;20592;-74
2021/08/29 06:15:50;;;;;;;2.17;1.80;;;;;;;13.57;100.00;100615.91;5010530;28;20227;-72
2021/08/29 06:18:16;;;;;;;2.17;2.00;;;;;;;13.48;100.00;100611.59;5010143;28;20196;-74
2021/08/29 06:20:41;;;;;;;1.83;1.73;;;;;;;13.47;100.00;100610.00;5010552;28;20238;-74
2021/08/29 06:23:07;;;;;;;1.93;1.80;;;;;;;13.55;100.00;100612.69;5003010;28;20200;-74
2021/08/29 06:25:32;;;;;;;1.77;1.63;;;;;;;13.47;100.00;100610.78;5001234;28;20173;-77
2021/08/29 06:27:58;;;;;;;2.40;2.20;;;;;;;13.48;100.00;100612.41;4993134;28;20205;-79
2021/08/29 06:30:23;;;;;;;2.73;2.37;;;;;;;13.36;100.00;100606.78;4993069;28;20263;-74
2021/08/29 06:32:48;;;;;;;1.80;1.70;;;;;;;13.34;100.00;100609.84;4992952;28;20201;-73
2021/08/29 06:35:14;;;;;;;2.33;1.47;;;;;;;13.38;100.00;100610.78;4997924;28;20183;-74
2021/08/29 06:37:39;;;;;;;2.40;2.20;;;;;;;13.33;100.00;100604.69;5006348;28;20254;-74
2021/08/29 06:40:06;;;;;;;3.13;2.27;;;;;;;13.29;100.00;100607.25;5010664;28;20235;-74
2021/08/29 06:42:31;;;;;;;2.37;2.27;;;;;;;13.31;100.00;100599.53;5009117;28;20212;-74
2021/08/29 06:44:56;;;;;;;2.23;2.03;;;;;;;13.35;100.00;100596.94;5007951;28;20180;-74
2021/08/29 06:47:21;;;;;;;2.40;2.20;;;;;;;13.45;100.00;100604.81;5009751;28;20204;-75
2021/08/29 06:49:47;;;;;;;2.30;2.10;;;;;;;13.50;100.00;100607.38;5004672;28;20188;-75
2021/08/29 06:52:12;;;;;;;3.57;2.20;;;;;;;13.52;100.00;100604.31;5010156;28;20227;-75
2021/08/29 06:54:38;;;;;;;2.07;1.57;;;;;;;13.33;100.00;100610.97;5011903;28;20511;-75
2021/08/29 06:57:04;;;;;;;3.43;2.27;;;;;;;13.46;100.00;100600.94;5000851;28;20196;-74
2021/08/29 06:59:29;;;;;;;2.07;1.87;;;;;;;13.57;100.00;100593.94;5003280;28;20188;-74
2021/08/29 07:01:55;;;;;;;2.30;2.10;;;;;;;13.51;100.00;100594.47;5007527;28;20537;-75
2021/08/29 07:04:20;;;;;;;2.50;2.30;;;;;;;13.63;100.00;100606.38;5006125;28;20220;-75
2021/08/29 07:06:45;;;;;;;2.37;2.17;;;;;;;13.56;100.00;100600.56;5011031;28;20185;-75
2021/08/29 07:09:10;;;;;;;2.83;2.47;;;;;;;13.60;100.00;100598.81;5004641;28;20248;-75
2021/08/29 07:11:36;;;;;;;2.70;2.50;;;;;;;13.40;100.00;100600.28;5007862;28;20180;-75
2021/08/29 07:14:01;;;;;;;2.90;2.70;;;;;;;13.30;100.00;100602.56;5004332;28;20173;-74
2021/08/29 07:16:27;;;;;;;3.10;2.80;;;;;;;13.44;100.00;100603.19;5002657;28;20336;-75
2021/08/29 07:18:53;;;;;;;3.10;2.90;;;;;;;13.48;100.00;100606.91;5010355;28;20195;-75
2021/08/29 07:21:18;;;;;;;3.67;2.90;;;;;;;13.42;100.00;100601.91;5011366;28;20183;-73
2021/08/29 07:23:43;;;;;;;3.20;3.00;;;;;;;13.53;100.00;100603.19;5011292;28;20185;-74
2021/08/29 07:26:13;;;;;;;2.47;2.27;;;;;;;13.45;100.00;100607.53;5011084;28;20203;-74
2021/08/29 07:28:40;;;;;;;2.93;2.73;;;;;;;13.56;100.00;100613.50;5011316;28;20294;-74
2021/08/29 07:31:05;;;;;;;3.50;3.17;;;;;;;13.62;100.00;100603.97;5010521;28;20185;-74
2021/08/29 07:33:31;;;;;;;3.00;2.70;;;;;;;13.61;100.00;100616.09;5003663;28;20191;-74
2021/08/29 07:35:56;;;;;;;2.97;2.67;;;;;;;13.63;100.00;100614.63;5010895;28;20181;-75
2021/08/29 07:38:21;;;;;;;3.27;3.00;;;;;;;13.66;100.00;100619.44;5011001;28;20184;-74
2021/08/29 07:40:47;;;;;;;3.23;2.87;;;;;;;13.61;100.00;100607.84;5010776;28;20180;-74
2021/08/29 07:43:12;;;;;;;2.67;2.47;;;;;;;13.70;100.00;100616.84;5011054;28;20188;-74
2021/08/29 07:45:37;;;;;;;2.47;2.27;;;;;;;13.65;100.00;100612.34;5010638;28;20526;-73
2021/08/29 07:48:03;;;;;;;2.13;1.93;;;;;;;13.73;100.00;100618.94;5011020;28;20295;-74
2021/08/29 07:50:28;;;;;;;2.40;2.20;;;;;;;13.67;100.00;100620.25;5011162;28;20205;-73
2021/08/29 07:52:54;;;;;;;2.60;2.40;;;;;;;13.53;100.00;100623.19;5010865;28;20549;-74
2021/08/29 07:55:19;;;;;;;2.47;2.23;;;;;;;13.62;100.00;100618.50;5011009;28;20260;-74
2021/08/29 07:57:44;;;;;;;4.17;3.00;;;;;;;13.50;100.00;100621.13;5011078;28;20263;-73
2021/08/29 08:00:10;;;;;;;2.40;2.20;;;;;;;13.48;100.00;100606.09;5010739;28;20246;-74
2021/08/29 08:02:35;;;;;;;2.83;2.63;;;;;;;13.47;100.00;100616.28;5011139;28;20259;-74
2021/08/29 08:05:01;;;;;;;2.90;2.70;;;;;;;13.47;100.00;100618.22;5010697;28;20722;-73
2021/08/29 08:07:26;;;;;;;3.13;2.60;;;;;;;13.47;100.00;100620.97;5010629;28;20211;-74
2021/08/29 08:09:51;;;;;;;2.43;2.23;;;;;;;13.54;100.00;100622.06;5010016;28;20678;-74
2021/08/29 08:12:17;;;;;;;4.13;2.43;;;;;;;13.72;100.00;100617.31;5009429;28;20231;-74
2021/08/29 08:14:43;;;;;;;2.93;2.30;;;;;;;13.78;100.00;100624.28;5010791;28;20191;-74
2021/08/29 08:17:08;;;;;;;2.20;2.00;;;;;;;13.90;100.00;100618.91;5011164;28;20572;-74
2021/08/29 08:19:34;;;;;;;1.80;1.70;;;;;;;13.91;100.00;100623.25;5009067;28;20498;-73
2021/08/29 08:22:00;;;;;;;1.70;1.40;;;;;;;14.07;100.00;100619.94;5008967;28;20196;-74
2021/08/29 08:24:26;;;;;;;2.33;2.00;;;;;;;14.09;100.00;100631.41;5007632;28;20168;-74
2021/08/29 08:26:51;;;;;;;2.00;1.90;;;;;;;14.15;100.00;100639.13;5007505;28;20188;-74
2021/08/29 08:29:17;;;;;;;3.03;1.90;;;;;;;13.98;100.00;100619.97;5008500;28;20675;-74
2021/08/29 08:31:42;;;;;;;1.63;1.53;;;;;;;14.09;100.00;100629.47;5007785;28;20238;-73
2021/08/29 08:34:07;;;;;;;1.70;1.57;;;;;;;14.26;100.00;100631.31;5004778;28;20192;-74
2021/08/29 08:36:33;;;;;;;2.10;1.90;;;;;;;14.25;100.00;100636.00;5010309;28;20172;-73
2021/08/29 08:39:00;;;;;;;1.67;1.57;;;;;;;14.27;100.00;100632.94;5010217;28;20702;-74
2021/08/29 08:41:26;;;;;;;1.70;1.60;;;;;;;14.36;100.00;100635.66;5010064;28;20278;-74
2021/08/29 08:43:51;;;;;;;2.13;1.50;;;;;;;14.40;100.00;100631.88;5009674;28;20180;-73
2021/08/29 08:46:19;;;;;;;1.23;0.90;;;;;;;14.33;100.00;100639.88;5004278;28;20222;-73
2021/08/29 08:48:49;;;;;;;1.10;1.07;;;;;;;14.23;100.00;100632.78;5008749;28;20227;-73
2021/08/29 08:51:21;;;;;;;1.20;1.10;;;;;;;14.32;100.00;100635.50;5007752;28;20236;-73
2021/08/29 08:53:50;;;;;;;1.37;1.27;;;;;;;14.46;100.00;100638.81;5009243;28;20177;-73
2021/08/29 08:56:17;;;;;;;0.73;0.73;;;;;;;14.62;100.00;100636.34;5010277;28;20204;-74
2021/08/29 08:58:43;;;;;;;0.87;0.87;;;;;;;14.59;100.00;100639.72;5010191;28;20550;-73
2021/08/29 09:01:09;;;;;;;1.43;1.33;;;;;;;14.64;100.00;100639.53;5010068;28;20227;-74
2021/08/29 09:03:35;;;;;;;1.30;1.20;;;;;;;14.65;100.00;100630.16;5010125;28;20180;-73
2021/08/29 09:06:02;;;;;;;2.30;1.73;;;;;;;14.54;100.00;100631.69;5010026;28;20263;-73
2021/08/29 09:08:27;;;;;;;1.30;1.20;;;;;;;14.69;100.00;100633.03;5010059;28;20552;-73
2021/08/29 09:10:52;;;;;;;1.00;1.00;;;;;;;14.69;100.00;100633.84;5010377;28;20176;-73
2021/08/29 09:13:18;;;;;;;1.33;1.23;;;;;;;14.43;100.00;100631.22;5010148;28;20228;-73
2021/08/29 09:15:43;;;;;;;2.00;1.90;;;;;;;14.53;100.00;100635.56;5010302;28;20628;-73
2021/08/29 09:18:11;;;;;;;2.13;1.93;;;;;;;14.45;100.00;100634.47;5010044;28;20188;-73
2021/08/29 09:20:37;;;;;;;1.77;1.67;;;;;;;14.65;100.00;100627.41;5010711;28;20214;-73
2021/08/29 09:23:20;;;;;;;1.60;1.50;;;;;;;14.55;100.00;100631.34;5013880;28;20176;-74
2021/08/29 09:25:46;;;;;;;1.70;1.60;;;;;;;14.48;100.00;100630.28;5013609;28;20234;-73
2021/08/29 09:28:15;;;;;;;1.90;1.80;;;;;;;14.41;100.00;100625.25;5013822;28;20615;-73
2021/08/29 09:30:46;;;;;;;2.73;1.40;;;;;;;14.21;100.00;100631.53;5013774;28;20179;-73
2021/08/29 09:33:13;;;;;;;1.60;1.50;;;;;;;14.10;100.00;100625.59;5013680;28;20173;-72
2021/08/29 09:35:38;;;;;;;1.97;1.87;;;;;;;14.05;100.00;100625.78;5013503;28;20180;-73
2021/08/29 09:38:09;;;;;;;1.90;1.80;;;;;;;14.22;100.00;100633.94;5013519;28;20260;-73
2021/08/29 09:40:36;;;;;;;3.93;2.00;;;;;;;14.45;100.00;100639.16;5012109;28;20184;-73
2021/08/29 09:43:04;;;;;;;1.73;1.63;;;;;;;14.47;100.00;100637.72;5013365;28;20602;-74
2021/08/29 09:45:30;;;;;;;2.40;1.80;;;;;;;14.48;100.00;100641.28;5013068;28;20231;-73
2021/08/29 09:48:05;;;;;;;2.27;2.07;;;;;;;14.51;100.00;100638.66;5013497;28;20204;-74
2021/08/29 09:50:32;;;;;;;1.87;1.77;;;;;;;14.47;100.00;100642.41;5011974;28;20180;-73
2021/08/29 09:53:19;;;;;;;2.20;2.10;;;;;;;14.43;100.00;100641.41;5012686;28;20214;-73
2021/08/29 09:55:47;;;;;;;2.30;2.20;;;;;;;14.35;100.00;100636.78;5012682;28;20172;-74
2021/08/29 09:58:26;;;;;;;2.40;2.20;;;;;;;14.57;100.00;100631.81;5013325;28;20208;-74
2021/08/29 10:01:16;;;;;;;3.10;2.60;;;;;;;14.43;100.00;100630.41;5013039;28;20182;-73
2021/08/29 10:03:43;;;;;;;2.03;1.93;;;;;;;14.45;100.00;100628.16;5012623;28;20189;-72
2021/08/29 10:06:13;;;;;;;2.43;2.00;;;;;;;14.48;100.00;100635.78;5012872;28;20184;-73
2021/08/29 10:08:43;;;;;;;2.47;2.27;;;;;;;14.54;100.00;100643.47;5012858;28;20458;-72
2021/08/29 10:11:10;;;;;;;2.73;2.53;;;;;;;14.77;100.00;100634.94;5012838;28;20189;-72
2021/08/29 10:13:36;;;;;;;2.63;2.43;;;;;;;14.92;100.00;100644.53;5012771;28;20176;-73
2021/08/29 10:16:04;;;;;;;2.50;2.30;;;;;;;14.96;100.00;100642.72;5012908;28;20251;-73
2021/08/29 10:18:31;;;;;;;2.10;2.00;;;;;;;14.99;100.00;100642.03;5012671;28;20200;-73
2021/08/29 10:20:58;;;;;;;2.37;2.17;;;;;;;14.84;100.00;100632.44;5012531;28;20569;-73
2021/08/29 10:23:23;;;;;;;1.73;1.63;;;;;;;14.77;100.00;100627.47;5012622;28;20173;-73
2021/08/29 10:25:52;;;;;;;2.10;1.80;;;;;;;14.63;100.00;100623.38;5011082;28;20181;-73
2021/08/29 10:28:23;;;;;;;2.23;2.10;;;;;;;14.50;100.00;100625.25;5012640;28;20211;-73
2021/08/29 10:30:49;;;;;;;2.43;2.23;;;;;;;14.62;100.00;100619.84;5012458;28;20566;-73
2021/08/29 10:33:17;;;;;;;2.77;2.20;;;;;;;14.87;100.00;100634.50;5011608;28;20184;-72
2021/08/29 10:35:46;;;;;;;2.53;2.33;;;;;;;14.89;100.00;100626.72;5010969;28;20208;-72
2021/08/29 10:38:11;;;;;;;3.00;2.63;;;;;;;15.02;100.00;100627.59;5012412;28;20187;-74
2021/08/29 10:40:37;;;;;;;3.77;3.47;;;;;;;15.04;100.00;100620.59;5012349;28;20176;-73
2021/08/29 10:43:04;;;;;;;3.60;3.30;;;;;;;15.04;100.00;100631.63;5012357;28;20515;-74
2021/08/29 10:45:29;;;;;;;4.07;3.67;;;;;;;14.97;100.00;100623.09;5011889;28;20521;-74
2021/08/29 10:47:55;;;;;;;4.70;3.50;;;;;;;15.19;100.00;100619.22;5012189;28;20557;-73
2021/08/29 10:50:22;;;;;;;3.20;2.90;;;;;;;15.36;100.00;100618.25;5010917;28;20184;-73
2021/08/29 10:52:47;;;;;;;5.23;3.10;;;;;;;15.38;100.00;100619.50;5012200;28;20212;-73
2021/08/29 10:55:18;;;;;;;2.53;2.33;;;;;;;15.18;100.00;100623.06;5012193;28;20223;-73
2021/08/29 10:57:45;;;;;;;3.07;2.83;;;;;;;15.14;100.00;100622.16;5011647;28;20180;-73
2021/08/29 11:00:12;;;;;;;2.60;2.40;;;;;;;15.15;100.00;100630.06;5012084;28;20176;-73
2021/08/29 11:02:50;;;;;;;2.97;2.77;;;;;;;15.23;100.00;100631.16;5012095;28;20176;-75
2021/08/29 11:05:41;;;;;;;2.93;2.73;;;;;;;15.16;100.00;100630.88;5011665;28;20676;-75
2021/08/29 11:08:26;;;;;;;2.70;2.50;;;;;;;15.28;100.00;100630.94;5010319;28;20215;-76
2021/08/29 11:10:51;;;;;;;2.77;2.57;;;;;;;15.25;100.00;100628.06;5011768;28;20173;-76
2021/08/29 11:13:29;;;;;;;2.50;2.30;;;;;;;14.94;100.00;100622.97;5011901;28;20180;-75
2021/08/29 11:16:13;;;;;;;2.10;2.00;;;;;;;15.08;100.00;100626.25;5011873;28;20180;-75